Huvudsida
METAR-TAF:

METAR-TAF

Flygplatser :

Dayrestan Airport

Qeshm, Iran

latitud: 26-45-18N, longitud: 055-54-08E, höjd: 12 m

Aktuellt väderrapport

Denna rapport gjordes för 42 minuter sedan, klockan 03:00 UTC
Stilla vind
Temperatur 19°C
Fuktighet 94%
Tryck 1011 hPa
Sikt 10 km eller mer
Få moln på en höjd av 2500 ft, Cumulonimbus.
Spridda moln på en höjd av 3000 ft
Mulet på en höjd av 9000 ft

METAR: OIKQ 200300Z 00000KT 9999 FEW025CB SCT030 OVC090 19/18 Q1011

Tid: 07:12 (03:42 UTC)


TAF: saknas

Aktuella väderrapporter och prognoser från 4000 flygplatser (METAR- och TAF-rapporter).

De tillgängliga stationerna syns som gula och röda prickar på kartan.

För musen över prickarna för att se namnen på stationerna.

Klicka sedan för att få väderrapporter och prognoser.

För att ändra kartan: Klicka på de gröna knapparna med ett svart kors på för att zooma in; den gröna knappen med ett streck på för att zooma ut; eller på de gröna pilarna för angränsande kartor.


METAR-TAF: